createdAt,value
2022-12-27T00:02:17.633Z,0.30
2022-12-27T00:04:44.378Z,0.40
2022-12-27T00:07:11.078Z,0.30
2022-12-27T00:09:37.835Z,0.40
2022-12-27T00:12:04.903Z,0.40
2022-12-27T00:14:31.789Z,0.40
2022-12-27T00:16:58.446Z,0.40
2022-12-27T00:19:25.098Z,0.30
2022-12-27T00:21:51.800Z,0.30
2022-12-27T00:24:18.464Z,0.47
2022-12-27T00:26:45.158Z,0.40
2022-12-27T00:29:11.823Z,0.40
2022-12-27T00:31:38.648Z,0.40
2022-12-27T00:34:07.707Z,0.40
2022-12-27T00:36:34.989Z,0.50
2022-12-27T00:39:02.041Z,0.60
2022-12-27T00:41:28.792Z,0.50
2022-12-27T00:43:56.155Z,0.50
2022-12-27T00:46:23.153Z,0.60
2022-12-27T00:48:49.878Z,0.50
2022-12-27T00:51:22.361Z,0.40
2022-12-27T00:56:19.505Z,0.50
2022-12-27T00:58:46.782Z,0.50
2022-12-27T01:01:19.706Z,0.77
2022-12-27T01:03:47.035Z,0.60
2022-12-27T01:06:19.395Z,0.50
2022-12-27T01:08:49.117Z,0.60
2022-12-27T01:11:17.458Z,0.60
2022-12-27T01:13:45.020Z,0.70
2022-12-27T01:16:21.730Z,0.77
2022-12-27T01:18:49.589Z,0.60
2022-12-27T01:21:20.250Z,0.80
2022-12-27T01:23:47.893Z,0.80
2022-12-27T01:26:18.092Z,0.93
2022-12-27T01:28:45.802Z,1.00
2022-12-27T01:31:18.753Z,1.05
2022-12-27T01:33:45.779Z,0.90
2022-12-27T01:36:21.887Z,1.00
2022-12-27T01:38:49.328Z,1.10
2022-12-27T01:41:50.282Z,1.40
2022-12-27T01:44:36.005Z,0.90
2022-12-27T01:47:04.501Z,0.80
2022-12-27T01:49:31.601Z,1.20
2022-12-27T01:51:58.830Z,1.23
2022-12-27T01:54:25.761Z,1.02
2022-12-27T01:56:53.030Z,0.60
2022-12-27T01:59:19.741Z,0.70
2022-12-27T02:01:47.316Z,0.63
2022-12-27T02:04:18.718Z,0.70
2022-12-27T02:06:46.674Z,0.75
2022-12-27T02:09:26.380Z,0.60
2022-12-27T02:11:56.911Z,0.60
2022-12-27T02:14:40.171Z,0.73
2022-12-27T02:17:19.667Z,0.77
2022-12-27T02:19:58.185Z,0.95
2022-12-27T02:23:21.688Z,0.95
2022-12-27T02:28:56.123Z,0.88
2022-12-27T02:31:35.564Z,0.80
2022-12-27T02:34:06.007Z,0.90
2022-12-27T02:36:37.164Z,0.75
2022-12-27T02:39:05.160Z,0.80
2022-12-27T02:41:53.407Z,0.80
2022-12-27T02:44:50.254Z,1.02
2022-12-27T02:47:40.807Z,0.90
2022-12-27T02:50:29.450Z,0.80
2022-12-27T02:53:05.710Z,0.85
2022-12-27T02:56:23.860Z,1.45
2022-12-27T02:59:10.572Z,0.80
2022-12-27T03:02:06.522Z,1.10
2022-12-27T03:04:42.225Z,0.70
2022-12-27T03:07:14.654Z,0.90
2022-12-27T03:10:26.289Z,1.00
2022-12-27T03:13:26.306Z,0.80
2022-12-27T03:16:11.123Z,0.82
2022-12-27T03:18:44.145Z,1.00
2022-12-27T03:21:32.758Z,0.80
2022-12-27T03:24:19.641Z,1.08
2022-12-27T03:26:50.083Z,0.70
2022-12-27T03:29:39.479Z,0.93
2022-12-27T03:32:28.758Z,0.98
2022-12-27T03:35:15.113Z,0.80
2022-12-27T03:38:05.255Z,0.90
2022-12-27T03:41:02.685Z,0.80
2022-12-27T03:43:30.258Z,1.17
2022-12-27T03:46:28.177Z,0.95
2022-12-27T03:49:03.489Z,0.98
2022-12-27T03:51:35.721Z,1.17
2022-12-27T03:54:10.317Z,0.77
2022-12-27T03:56:38.735Z,1.02
2022-12-27T03:59:06.357Z,0.88
2022-12-27T04:01:33.143Z,0.63
2022-12-27T04:03:59.867Z,0.90
2022-12-27T04:06:26.654Z,0.98
2022-12-27T04:09:11.746Z,0.70
2022-12-27T04:11:57.077Z,1.08
2022-12-27T04:14:42.225Z,0.70
2022-12-27T04:17:27.482Z,1.02
2022-12-27T04:20:13.072Z,0.80
2022-12-27T04:22:58.262Z,1.08
2022-12-27T04:25:43.656Z,0.90
2022-12-27T04:28:29.029Z,1.00
2022-12-27T04:31:14.525Z,1.35
2022-12-27T04:34:00.209Z,0.73
2022-12-27T04:36:26.888Z,1.20
2022-12-27T04:38:53.826Z,1.00
2022-12-27T04:41:39.195Z,0.60
2022-12-27T04:44:24.720Z,1.00
2022-12-27T04:47:10.011Z,0.60
2022-12-27T04:49:55.391Z,0.80
2022-12-27T04:52:42.597Z,0.75
2022-12-27T04:55:23.496Z,0.90
2022-12-27T04:57:51.070Z,1.02
2022-12-27T05:00:38.111Z,0.73
2022-12-27T05:03:09.069Z,0.90
2022-12-27T05:05:37.881Z,0.80
2022-12-27T05:08:24.807Z,0.80
2022-12-27T05:11:10.422Z,1.10
2022-12-27T05:13:55.522Z,0.77
2022-12-27T05:16:22.344Z,0.73
2022-12-27T05:18:49.076Z,0.80
2022-12-27T05:21:15.937Z,1.52
2022-12-27T05:24:05.371Z,0.80
2022-12-27T05:26:33.816Z,1.58
2022-12-27T05:29:01.246Z,1.00
2022-12-27T05:31:29.350Z,1.27
2022-12-27T05:33:57.002Z,0.80
2022-12-27T05:36:23.929Z,0.98
2022-12-27T05:38:51.466Z,1.20
2022-12-27T05:41:18.827Z,1.00
2022-12-27T05:43:45.696Z,1.00
2022-12-27T05:46:15.000Z,1.10
2022-12-27T05:48:41.891Z,0.80
2022-12-27T05:51:14.443Z,0.90
2022-12-27T05:53:41.191Z,0.90
2022-12-27T05:56:09.373Z,0.80
2022-12-27T05:58:36.011Z,0.88
2022-12-27T06:01:09.175Z,0.70
2022-12-27T06:03:36.579Z,0.70
2022-12-27T06:06:04.151Z,0.80
2022-12-27T06:08:31.158Z,0.70
2022-12-27T06:11:09.321Z,1.05
2022-12-27T06:13:37.361Z,0.90
2022-12-27T06:16:06.527Z,0.90
2022-12-27T06:18:35.527Z,0.90
2022-12-27T06:21:17.441Z,1.00
2022-12-27T06:23:45.126Z,0.80
2022-12-27T06:26:18.450Z,0.90
2022-12-27T06:28:45.834Z,0.80
2022-12-27T06:31:12.839Z,0.85
2022-12-27T06:33:39.699Z,0.88
2022-12-27T06:36:08.104Z,0.80
2022-12-27T06:38:34.840Z,1.05
2022-12-27T06:41:03.181Z,1.23
2022-12-27T06:43:30.172Z,0.90
2022-12-27T06:46:01.668Z,0.80
2022-12-27T06:48:28.518Z,1.17
2022-12-27T06:50:55.342Z,2.35
2022-12-27T06:53:22.312Z,5.50
2022-12-27T06:55:49.134Z,6.28
2022-12-27T06:58:16.384Z,6.22
2022-12-27T07:00:43.599Z,2.03
2022-12-27T07:03:10.330Z,2.03
2022-12-27T07:05:37.868Z,1.50
2022-12-27T07:08:05.682Z,2.78
2022-12-27T07:10:32.471Z,5.20
2022-12-27T07:12:59.415Z,5.72
2022-12-27T07:15:26.170Z,6.80
2022-12-27T07:17:52.846Z,7.90
2022-12-27T07:20:19.568Z,6.00
2022-12-27T07:22:46.281Z,6.68
2022-12-27T07:25:13.091Z,6.65
2022-12-27T07:27:39.792Z,8.35
2022-12-27T07:30:07.239Z,12.38
2022-12-27T07:32:33.898Z,12.65
2022-12-27T07:35:00.773Z,10.98
2022-12-27T07:37:27.471Z,6.38
2022-12-27T07:39:54.164Z,4.43
2022-12-27T07:42:20.849Z,2.83
2022-12-27T07:44:48.402Z,1.80
2022-12-27T07:47:15.080Z,1.77
2022-12-27T07:49:41.796Z,1.52
2022-12-27T07:52:08.436Z,2.15
2022-12-27T07:54:35.156Z,8.80
2022-12-27T07:57:01.840Z,7.18
2022-12-27T07:59:29.331Z,6.65
2022-12-27T08:02:05.338Z,6.53
2022-12-27T08:04:34.971Z,5.47
2022-12-27T08:07:12.195Z,7.18
2022-12-27T08:09:41.669Z,5.35
2022-12-27T08:12:08.932Z,3.40
2022-12-27T08:14:35.738Z,1.88
2022-12-27T08:17:06.564Z,1.73
2022-12-27T08:19:33.362Z,1.50
2022-12-27T08:22:00.058Z,1.80
2022-12-27T08:24:26.839Z,2.10
2022-12-27T08:26:53.523Z,2.00
2022-12-27T08:29:20.236Z,1.60
2022-12-27T08:31:46.933Z,1.88
2022-12-27T08:34:13.655Z,3.20
2022-12-27T08:36:56.539Z,3.63
2022-12-27T08:39:24.379Z,3.05
2022-12-27T08:41:53.293Z,3.47
2022-12-27T08:44:20.193Z,2.92
2022-12-27T08:46:47.399Z,3.33
2022-12-27T08:49:14.165Z,2.83
2022-12-27T08:51:41.674Z,2.20
2022-12-27T08:54:10.207Z,1.73
2022-12-27T08:56:37.059Z,1.85
2022-12-27T08:59:04.145Z,2.60
2022-12-27T09:01:31.013Z,2.30
2022-12-27T09:03:57.838Z,2.42
2022-12-27T09:06:25.662Z,3.15
2022-12-27T09:08:54.511Z,3.38
2022-12-27T09:11:22.610Z,3.10
2022-12-27T09:13:49.474Z,3.10
2022-12-27T09:16:19.140Z,3.10
2022-12-27T09:18:52.153Z,3.20
2022-12-27T09:21:20.391Z,2.90
2022-12-27T09:23:48.016Z,2.17
2022-12-27T09:26:22.211Z,2.17
2022-12-27T09:28:49.873Z,3.10
2022-12-27T09:31:18.087Z,4.65
2022-12-27T09:33:45.275Z,1.85
2022-12-27T09:36:15.239Z,1.98
2022-12-27T09:38:43.202Z,2.58
2022-12-27T09:44:24.208Z,1.27
2022-12-27T09:47:17.398Z,1.33
2022-12-27T09:49:52.522Z,1.40
2022-12-27T09:52:26.703Z,1.00
2022-12-27T09:55:06.307Z,1.27
2022-12-27T09:57:40.733Z,0.80
2022-12-27T10:00:19.415Z,1.33
2022-12-27T10:03:04.660Z,1.02
2022-12-27T10:05:34.407Z,1.80
2022-12-27T10:08:09.965Z,1.00
2022-12-27T10:10:49.094Z,1.02
2022-12-27T10:13:42.827Z,1.30
2022-12-27T10:16:32.315Z,1.65
2022-12-27T10:19:23.469Z,1.00
2022-12-27T10:22:15.962Z,0.73
2022-12-27T10:24:49.035Z,0.80
2022-12-27T10:27:20.924Z,0.70
2022-12-27T10:29:48.997Z,0.70
2022-12-27T10:32:16.482Z,0.88
2022-12-27T10:34:43.413Z,1.08
2022-12-27T10:37:16.609Z,0.90
2022-12-27T10:39:44.034Z,0.80
2022-12-27T10:42:35.533Z,0.70
2022-12-27T10:45:28.467Z,0.70
2022-12-27T10:50:28.127Z,0.73
2022-12-27T10:52:57.694Z,0.70
2022-12-27T10:55:32.989Z,0.70
2022-12-27T10:58:18.559Z,0.60
2022-12-27T11:00:54.913Z,0.63
2022-12-27T11:03:21.868Z,2.78
2022-12-27T11:06:05.724Z,0.90
2022-12-27T11:08:32.911Z,0.70
2022-12-27T11:11:14.118Z,0.60
2022-12-27T11:13:42.315Z,2.85
2022-12-27T11:16:27.563Z,1.35
2022-12-27T11:18:57.460Z,1.88
2022-12-27T11:21:28.028Z,7.38
2022-12-27T11:23:58.531Z,2.90
2022-12-27T11:26:32.572Z,1.73
2022-12-27T11:29:03.577Z,1.40
2022-12-27T11:31:42.380Z,2.00
2022-12-27T11:34:30.960Z,1.30
2022-12-27T11:37:06.337Z,1.50
2022-12-27T11:39:41.008Z,3.53
2022-12-27T11:42:38.486Z,2.00
2022-12-27T11:45:19.322Z,1.50
2022-12-27T11:47:54.121Z,0.93
2022-12-27T11:50:26.900Z,0.90
2022-12-27T11:52:59.845Z,0.95
2022-12-27T11:55:47.388Z,0.88
2022-12-27T11:58:33.301Z,0.93
2022-12-27T12:01:38.344Z,1.58
2022-12-27T12:04:29.507Z,1.00
2022-12-27T12:07:15.066Z,0.82
2022-12-27T12:09:58.872Z,0.70
2022-12-27T12:13:10.589Z,2.17
2022-12-27T12:16:03.519Z,1.00
2022-12-27T12:21:26.283Z,1.10
2022-12-27T12:24:18.514Z,0.90
2022-12-27T12:26:57.069Z,0.60
2022-12-27T12:29:45.708Z,0.93
2022-12-27T12:32:25.668Z,0.73
2022-12-27T12:35:30.292Z,0.80
2022-12-27T12:38:22.916Z,0.60
2022-12-27T12:41:24.245Z,0.70
2022-12-27T12:43:51.815Z,0.50
2022-12-27T12:46:42.695Z,0.60
2022-12-27T12:49:18.257Z,0.80
2022-12-27T12:52:12.993Z,0.60
2022-12-27T12:55:03.317Z,0.73
2022-12-27T12:57:39.837Z,0.60
2022-12-27T13:00:25.356Z,0.50
2022-12-27T13:03:19.620Z,0.85
2022-12-27T13:06:04.816Z,0.50
2022-12-27T13:08:49.414Z,1.10
2022-12-27T13:11:39.911Z,0.63
2022-12-27T13:14:30.323Z,0.90
2022-12-27T13:17:18.972Z,0.50
2022-12-27T13:20:18.314Z,0.50
2022-12-27T13:22:53.970Z,0.60
2022-12-27T13:25:49.144Z,0.50
2022-12-27T13:28:34.303Z,0.43
2022-12-27T13:31:23.010Z,0.60
2022-12-27T13:34:20.663Z,0.38
2022-12-27T13:37:10.495Z,0.60
2022-12-27T13:40:08.084Z,0.50
2022-12-27T13:42:45.803Z,0.93
2022-12-27T13:45:28.031Z,1.38
2022-12-27T13:48:03.458Z,1.67
2022-12-27T13:51:01.371Z,2.03
2022-12-27T13:53:50.137Z,0.80
2022-12-27T13:59:41.970Z,0.73
2022-12-27T14:02:36.903Z,0.60
2022-12-27T14:05:40.920Z,0.63
2022-12-27T14:08:40.899Z,0.65
2022-12-27T14:11:19.951Z,1.08
2022-12-27T14:13:47.239Z,1.00
2022-12-27T14:16:22.869Z,1.10
2022-12-27T14:19:01.628Z,1.10
2022-12-27T14:22:04.015Z,1.10
2022-12-27T14:24:45.679Z,1.05
2022-12-27T14:27:33.528Z,3.58
2022-12-27T14:30:31.289Z,1.50
2022-12-27T14:33:22.321Z,0.90
2022-12-27T14:36:07.067Z,1.05
2022-12-27T14:38:51.788Z,0.80
2022-12-27T14:41:59.211Z,0.60
2022-12-27T14:44:56.908Z,0.60
2022-12-27T14:47:42.346Z,1.42
2022-12-27T14:50:27.781Z,0.90
2022-12-27T14:53:13.339Z,1.00
2022-12-27T14:55:44.385Z,0.80
2022-12-27T14:58:52.282Z,0.70
2022-12-27T15:01:43.607Z,1.38
2022-12-27T15:04:32.298Z,1.95
2022-12-27T15:07:23.012Z,1.48
2022-12-27T15:10:13.964Z,1.35
2022-12-27T15:12:55.579Z,1.20
2022-12-27T15:15:44.055Z,2.10
2022-12-27T15:18:16.644Z,2.17
2022-12-27T15:23:40.496Z,7.45
2022-12-27T15:26:21.977Z,4.90
2022-12-27T15:28:51.640Z,5.38
2022-12-27T15:31:26.312Z,2.92
2022-12-27T15:34:09.754Z,2.80
2022-12-27T15:36:47.533Z,4.50
2022-12-27T15:39:32.842Z,5.28
2022-12-27T15:42:24.191Z,7.28
2022-12-27T15:45:12.341Z,8.48
2022-12-27T15:48:15.583Z,4.22
2022-12-27T15:50:51.582Z,11.40
2022-12-27T15:53:40.643Z,12.27
2022-12-27T15:56:10.263Z,10.45
2022-12-27T15:58:37.487Z,9.30
2022-12-27T16:01:23.657Z,3.20
2022-12-27T16:03:53.740Z,2.00
2022-12-27T16:06:35.686Z,1.70
2022-12-27T16:09:35.582Z,3.53
2022-12-27T16:12:08.600Z,1.80
2022-12-27T16:14:38.177Z,2.00
2022-12-27T16:17:46.246Z,3.15
2022-12-27T16:20:19.168Z,2.67
2022-12-27T16:22:58.562Z,3.72
2022-12-27T16:25:40.653Z,4.80
2022-12-27T16:28:08.754Z,3.67
2022-12-27T16:30:45.745Z,3.42
2022-12-27T16:33:27.858Z,2.40
2022-12-27T16:36:19.194Z,2.08
2022-12-27T16:38:46.180Z,1.80
2022-12-27T16:41:24.544Z,1.42
2022-12-27T16:44:00.418Z,2.63
2022-12-27T16:46:53.341Z,3.58
2022-12-27T16:52:02.107Z,3.97
2022-12-27T16:55:02.461Z,5.45
2022-12-27T16:57:39.689Z,3.15
2022-12-27T17:00:35.600Z,3.70
2022-12-27T17:03:34.269Z,3.28
2022-12-27T17:06:35.318Z,4.65
2022-12-27T17:09:08.008Z,5.72
2022-12-27T17:11:46.601Z,5.38
2022-12-27T17:14:18.775Z,5.00
2022-12-27T17:16:52.326Z,4.53
2022-12-27T17:19:26.120Z,4.53
2022-12-27T17:21:58.842Z,4.20
2022-12-27T17:24:26.177Z,3.75
2022-12-27T17:27:18.674Z,6.07
2022-12-27T17:30:06.616Z,7.10
2022-12-27T17:32:52.368Z,7.65
2022-12-27T17:35:35.093Z,8.32
2022-12-27T17:40:43.444Z,6.80
2022-12-27T17:43:43.558Z,6.85
2022-12-27T17:46:38.819Z,8.07
2022-12-27T17:49:09.390Z,7.13
2022-12-27T17:51:40.867Z,7.47
2022-12-27T17:54:52.479Z,7.75
2022-12-27T17:57:39.257Z,9.05
2022-12-27T18:00:20.672Z,8.65
2022-12-27T18:02:48.192Z,7.97
2022-12-27T18:05:16.444Z,8.02
2022-12-27T18:07:44.386Z,15.10
2022-12-27T18:10:25.130Z,13.95
2022-12-27T18:12:54.359Z,9.82
2022-12-27T18:15:23.968Z,10.43
2022-12-27T18:17:57.458Z,9.15
2022-12-27T18:20:28.822Z,9.90
2022-12-27T18:23:01.640Z,11.85
2022-12-27T18:25:30.898Z,12.90
2022-12-27T18:28:03.483Z,14.02
2022-12-27T18:33:03.895Z,10.55
2022-12-27T18:35:31.267Z,12.20
2022-12-27T18:37:57.966Z,20.67
2022-12-27T18:40:26.213Z,20.77
2022-12-27T18:42:53.545Z,15.65
2022-12-27T18:45:27.019Z,14.82
2022-12-27T18:47:57.494Z,15.98
2022-12-27T18:50:30.044Z,17.58
2022-12-27T18:55:28.875Z,15.32
2022-12-27T18:58:20.597Z,11.45
2022-12-27T19:00:54.886Z,8.93
2022-12-27T19:03:21.709Z,7.25
2022-12-27T19:06:07.721Z,7.38
2022-12-27T19:08:43.947Z,7.32
2022-12-27T19:11:25.501Z,7.57
2022-12-27T19:13:59.322Z,8.15
2022-12-27T19:16:31.516Z,7.70
2022-12-27T19:19:05.000Z,7.05
2022-12-27T19:21:37.874Z,7.38
2022-12-27T19:24:29.341Z,5.63
2022-12-27T19:27:00.700Z,5.32
2022-12-27T19:29:31.390Z,5.25
2022-12-27T19:32:03.515Z,6.82
2022-12-27T19:34:39.379Z,10.43
2022-12-27T19:37:06.072Z,9.23
2022-12-27T19:39:38.570Z,7.82
2022-12-27T19:42:08.405Z,7.13
2022-12-27T19:44:35.127Z,10.77
2022-12-27T19:47:01.858Z,14.18
2022-12-27T19:49:44.910Z,21.73
2022-12-27T19:52:19.345Z,51.47
2022-12-27T19:54:47.590Z,44.17
2022-12-27T19:57:14.565Z,37.10
2022-12-27T19:59:41.434Z,20.05
2022-12-27T20:02:08.580Z,10.75
2022-12-27T20:04:35.479Z,9.00
2022-12-27T20:07:02.496Z,5.72
2022-12-27T20:09:29.276Z,4.88
2022-12-27T20:11:55.987Z,4.95
2022-12-27T20:14:22.674Z,4.28
2022-12-27T20:16:49.440Z,4.85
2022-12-27T20:19:17.964Z,4.07
2022-12-27T20:21:45.079Z,6.22
2022-12-27T20:24:12.971Z,6.97
2022-12-27T20:26:40.267Z,8.70
2022-12-27T20:29:07.331Z,7.22
2022-12-27T20:31:40.630Z,7.95
2022-12-27T20:34:11.248Z,8.75
2022-12-27T20:36:38.141Z,7.78
2022-12-27T20:39:06.800Z,7.85
2022-12-27T20:41:33.491Z,6.20
2022-12-27T20:44:00.155Z,7.00
2022-12-27T20:46:27.103Z,7.82
2022-12-27T20:48:54.842Z,5.63
2022-12-27T20:51:27.412Z,11.40
2022-12-27T20:53:56.252Z,15.75
2022-12-27T20:56:23.851Z,13.05
2022-12-27T20:58:50.719Z,9.55
2022-12-27T21:01:23.577Z,9.20
2022-12-27T21:03:51.043Z,11.20
2022-12-27T21:06:23.716Z,9.73
2022-12-27T21:08:56.829Z,9.15
2022-12-27T21:11:27.553Z,6.63
2022-12-27T21:13:54.725Z,7.43
2022-12-27T21:16:23.943Z,7.18
2022-12-27T21:18:50.839Z,3.75
2022-12-27T21:21:25.696Z,2.92
2022-12-27T21:23:55.103Z,2.10
2022-12-27T21:26:24.882Z,2.70
2022-12-27T21:28:51.978Z,3.13
2022-12-27T21:31:19.555Z,3.55
2022-12-27T21:33:47.407Z,3.28
2022-12-27T21:36:19.761Z,1.63
2022-12-27T21:38:47.637Z,1.80
2022-12-27T21:41:15.686Z,1.70
2022-12-27T21:43:43.533Z,2.90
2022-12-27T21:46:20.860Z,2.90
2022-12-27T21:48:49.053Z,3.20
2022-12-27T21:51:18.244Z,5.95
2022-12-27T21:53:45.916Z,6.45
2022-12-27T21:56:14.826Z,7.13
2022-12-27T21:58:43.090Z,7.40
2022-12-27T22:01:19.204Z,6.70
2022-12-27T22:03:47.976Z,5.68
2022-12-27T22:06:17.537Z,6.68
2022-12-27T22:08:46.458Z,5.07
2022-12-27T22:11:14.075Z,5.45
2022-12-27T22:13:41.387Z,5.03
2022-12-27T22:16:12.927Z,6.22
2022-12-27T22:18:44.292Z,6.50
2022-12-27T22:21:14.116Z,6.57
2022-12-27T22:23:43.547Z,5.93
2022-12-27T22:26:22.124Z,5.70
2022-12-27T22:28:48.933Z,5.50
2022-12-27T22:31:21.869Z,6.10
2022-12-27T22:33:49.445Z,4.18
2022-12-27T22:36:26.754Z,3.72
2022-12-27T22:38:56.538Z,3.90
2022-12-27T22:41:32.032Z,4.40
2022-12-27T22:44:11.645Z,5.68
2022-12-27T22:47:15.266Z,4.65
2022-12-27T22:49:26.281Z,3.80
2022-12-27T22:51:53.305Z,3.47
2022-12-27T22:54:20.004Z,3.40
2022-12-27T22:56:46.716Z,3.17
2022-12-27T22:59:16.317Z,4.00
2022-12-27T23:01:44.879Z,3.80
2022-12-27T23:04:13.570Z,4.43
2022-12-27T23:06:40.780Z,3.63
2022-12-27T23:09:08.167Z,2.97
2022-12-27T23:11:37.685Z,2.72
2022-12-27T23:14:08.949Z,3.15
2022-12-27T23:16:40.946Z,3.35
2022-12-27T23:19:08.056Z,2.90
2022-12-27T23:21:35.011Z,3.30
2022-12-27T23:24:02.147Z,3.47
2022-12-27T23:26:28.916Z,3.25
2022-12-27T23:28:55.962Z,3.35
2022-12-27T23:31:26.071Z,2.92
2022-12-27T23:33:53.474Z,3.13
2022-12-27T23:36:20.275Z,3.72
2022-12-27T23:38:47.626Z,3.22
2022-12-27T23:41:20.757Z,4.10
2022-12-27T23:43:53.257Z,4.38
2022-12-27T23:46:29.928Z,9.40
2022-12-27T23:48:58.535Z,17.15
2022-12-27T23:51:25.637Z,15.20
2022-12-27T23:53:52.535Z,14.27
2022-12-27T23:56:24.806Z,11.32
2022-12-27T23:58:54.164Z,11.20
